Time;durP1;ratioP1;P1;durP2;ratioP2;P2;SDS_P1;SDS_P2;PMS_P1;PMS_P2;Temp;Humidity;BMP_temperature;BMP_pressure;BME280_temperature;BME280_humidity;BME280_pressure;Samples;Min_cycle;Max_cycle;Signal;HPM_P1;HPM_P2
2022/11/07 00:00:07;;;;;;;1.35;1.00;;;9.50;99.90;;;;;;5046985;28;20206;-67
2022/11/07 00:02:33;;;;;;;1.33;1.00;;;9.50;99.90;;;;;;5046872;28;20215;-67
2022/11/07 00:05:02;;;;;;;1.40;1.20;;;9.60;99.90;;;;;;5047141;28;20251;-67
2022/11/07 00:07:29;;;;;;;1.42;1.10;;;9.60;99.90;;;;;;5047338;28;20194;-67
2022/11/07 00:09:55;;;;;;;1.23;1.00;;;9.60;99.90;;;;;;5047630;28;20206;-67
2022/11/07 00:12:22;;;;;;;1.70;1.15;;;9.70;99.90;;;;;;5047708;28;20590;-68
2022/11/07 00:14:49;;;;;;;1.20;1.10;;;9.60;99.90;;;;;;5039238;28;20232;-67
2022/11/07 00:17:17;;;;;;;1.73;1.20;;;9.60;99.90;;;;;;5027188;28;20245;-67
2022/11/07 00:19:43;;;;;;;1.13;1.00;;;9.60;99.90;;;;;;5027079;28;20233;-67
2022/11/07 00:22:11;;;;;;;1.35;1.02;;;9.60;99.90;;;;;;5026627;28;20207;-65
2022/11/07 00:24:38;;;;;;;1.75;1.30;;;9.60;99.90;;;;;;5027221;28;20233;-67
2022/11/07 00:27:05;;;;;;;0.90;0.80;;;9.50;99.90;;;;;;5026695;28;20198;-67
2022/11/07 00:29:32;;;;;;;1.65;1.20;;;9.60;99.90;;;;;;5027163;28;20206;-66
2022/11/07 00:31:58;;;;;;;1.20;1.10;;;9.50;99.90;;;;;;5026478;28;20206;-67
2022/11/07 00:34:25;;;;;;;1.35;1.00;;;9.50;99.90;;;;;;5026117;28;20206;-66
2022/11/07 00:36:52;;;;;;;1.10;1.00;;;9.50;99.90;;;;;;5027318;28;20245;-67
2022/11/07 00:39:20;;;;;;;1.23;1.13;;;9.50;99.90;;;;;;5027870;28;20202;-67
2022/11/07 00:41:48;;;;;;;1.75;1.08;;;9.50;99.90;;;;;;5028728;28;20209;-67
2022/11/07 00:44:15;;;;;;;1.10;1.00;;;9.40;99.90;;;;;;5031100;28;20762;-67
2022/11/07 00:46:42;;;;;;;1.65;1.55;;;9.40;99.90;;;;;;5030794;28;20209;-65
2022/11/07 00:49:08;;;;;;;1.33;1.10;;;9.40;99.90;;;;;;5030678;28;20212;-66
2022/11/07 00:51:35;;;;;;;1.00;0.90;;;9.40;99.90;;;;;;5030487;28;20217;-67
2022/11/07 00:54:03;;;;;;;1.40;1.23;;;9.40;99.90;;;;;;5030914;28;20233;-65
2022/11/07 00:56:31;;;;;;;2.00;1.50;;;9.40;99.90;;;;;;5030549;28;20627;-67
2022/11/07 00:58:59;;;;;;;1.10;0.88;;;9.40;99.90;;;;;;5030346;28;20212;-65
2022/11/07 01:01:28;;;;;;;1.48;1.20;;;9.50;99.90;;;;;;5031124;28;20205;-67
2022/11/07 01:06:42;;;;;;;1.48;1.35;;;9.40;99.90;;;;;;5033561;28;20193;-67
2022/11/07 01:09:10;;;;;;;1.42;1.13;;;9.40;99.90;;;;;;5033133;28;20213;-67
2022/11/07 01:11:39;;;;;;;1.27;1.05;;;9.40;99.90;;;;;;5033063;28;20207;-67
2022/11/07 01:14:07;;;;;;;1.33;1.17;;;9.40;99.90;;;;;;5033038;28;20207;-67
2022/11/07 01:16:34;;;;;;;1.80;1.00;;;9.30;99.90;;;;;;5032823;28;20210;-67
2022/11/07 01:19:01;;;;;;;1.35;1.17;;;9.30;99.90;;;;;;5033114;28;20205;-66
2022/11/07 01:21:28;;;;;;;1.48;1.25;;;9.30;99.90;;;;;;5032893;28;20252;-66
2022/11/07 01:23:55;;;;;;;2.45;1.33;;;9.30;99.90;;;;;;5033232;28;20210;-66
2022/11/07 01:26:22;;;;;;;1.23;1.00;;;9.30;99.90;;;;;;5033075;28;20225;-67
2022/11/07 01:28:50;;;;;;;1.33;1.05;;;9.30;99.90;;;;;;5032608;28;20289;-67
2022/11/07 01:31:17;;;;;;;1.92;1.58;;;9.30;99.90;;;;;;5032146;28;20257;-66
2022/11/07 01:33:44;;;;;;;1.13;1.00;;;9.30;99.90;;;;;;5032578;28;20206;-67
2022/11/07 01:36:14;;;;;;;1.10;1.00;;;9.30;99.90;;;;;;5032144;28;20222;-67
2022/11/07 01:38:43;;;;;;;1.27;0.90;;;9.20;99.90;;;;;;5032553;28;20230;-67
2022/11/07 01:41:21;;;;;;;1.45;1.00;;;9.20;99.90;;;;;;5032128;28;20210;-67
2022/11/07 01:43:52;;;;;;;1.30;1.20;;;9.20;99.90;;;;;;5032530;28;20214;-67
2022/11/07 01:46:20;;;;;;;1.15;1.05;;;9.20;99.90;;;;;;5119263;22;20418;-67
2022/11/07 01:48:52;;;;;;;1.35;1.25;;;9.20;99.90;;;;;;5051818;28;20200;-67
2022/11/07 01:51:21;;;;;;;1.17;1.05;;;9.20;99.90;;;;;;5051635;28;20626;-67
2022/11/07 01:53:48;;;;;;;1.52;1.30;;;9.20;99.90;;;;;;5056416;28;20677;-67
2022/11/07 01:56:18;;;;;;;2.22;1.80;;;9.20;99.90;;;;;;5072187;28;20225;-67
2022/11/07 01:58:47;;;;;;;1.20;0.93;;;9.20;99.90;;;;;;5072167;28;20228;-66
2022/11/07 02:01:16;;;;;;;1.73;1.40;;;9.20;99.90;;;;;;5069756;28;20209;-66
2022/11/07 02:03:45;;;;;;;1.77;1.50;;;9.20;99.90;;;;;;5071035;28;20204;-67
2022/11/07 02:06:17;;;;;;;2.35;1.23;;;9.20;99.90;;;;;;5071608;28;20232;-67
2022/11/07 02:08:46;;;;;;;2.20;1.35;;;9.20;99.90;;;;;;5072109;28;20203;-67
2022/11/07 02:11:13;;;;;;;1.60;1.25;;;9.30;99.90;;;;;;5071292;28;20204;-66
2022/11/07 02:13:40;;;;;;;1.40;1.05;;;9.30;99.90;;;;;;5071890;28;20201;-67
2022/11/07 02:16:07;;;;;;;2.17;1.30;;;9.30;99.90;;;;;;5071580;28;20232;-66
2022/11/07 02:18:39;;;;;;;1.70;1.30;;;9.30;99.90;;;;;;5071944;28;20722;-67
2022/11/07 02:21:14;;;;;;;1.50;1.30;;;9.30;99.90;;;;;;5071604;28;20210;-67
2022/11/07 02:23:48;;;;;;;1.25;1.00;;;9.30;99.90;;;;;;5072223;28;20200;-67
2022/11/07 02:26:16;;;;;;;1.60;1.45;;;9.40;99.90;;;;;;5071850;28;20229;-66
2022/11/07 02:28:46;;;;;;;1.30;1.20;;;9.40;99.90;;;;;;5072389;28;20224;-67
2022/11/07 02:31:13;;;;;;;1.45;1.20;;;9.40;99.90;;;;;;5071209;28;20219;-67
2022/11/07 02:33:40;;;;;;;1.45;1.35;;;9.50;99.90;;;;;;5071623;28;20211;-66
2022/11/07 02:36:13;;;;;;;1.88;1.30;;;9.50;99.90;;;;;;5071810;28;20225;-67
2022/11/07 02:38:40;;;;;;;1.25;1.15;;;9.60;99.90;;;;;;5071692;28;20244;-67
2022/11/07 02:41:09;;;;;;;2.05;1.35;;;9.50;99.90;;;;;;5071255;28;20671;-66
2022/11/07 02:43:41;;;;;;;1.50;1.40;;;9.60;99.90;;;;;;5071681;28;20203;-67
2022/11/07 02:46:10;;;;;;;1.05;0.90;;;9.60;99.90;;;;;;5072303;28;20225;-67
2022/11/07 02:48:42;;;;;;;1.40;1.30;;;9.60;99.90;;;;;;5072518;28;20207;-67
2022/11/07 02:51:09;;;;;;;1.50;1.40;;;9.60;99.90;;;;;;5070593;28;20205;-67
2022/11/07 02:53:36;;;;;;;1.40;1.10;;;9.70;99.90;;;;;;5070940;28;20209;-66
2022/11/07 02:56:02;;;;;;;1.92;1.73;;;9.70;99.90;;;;;;5070822;28;20235;-67
2022/11/07 02:58:29;;;;;;;1.23;1.13;;;9.70;99.90;;;;;;5071067;28;20228;-67
2022/11/07 03:01:01;;;;;;;1.52;1.30;;;9.70;99.90;;;;;;5070802;28;20205;-67
2022/11/07 03:03:28;;;;;;;1.60;1.50;;;9.70;99.90;;;;;;5070702;28;20411;-67
2022/11/07 03:05:55;;;;;;;1.50;1.35;;;9.70;99.90;;;;;;5070680;28;20575;-66
2022/11/07 03:08:22;;;;;;;2.33;1.52;;;9.70;99.90;;;;;;5071086;28;20576;-67
2022/11/07 03:10:49;;;;;;;2.20;1.30;;;9.70;99.90;;;;;;5070793;28;20200;-67
2022/11/07 03:13:16;;;;;;;1.73;1.23;;;9.80;99.90;;;;;;5070394;28;20221;-67
2022/11/07 03:15:42;;;;;;;2.60;1.40;;;9.80;99.90;;;;;;5070847;28;20225;-67
2022/11/07 03:18:10;;;;;;;3.35;1.20;;;9.80;99.90;;;;;;5070156;28;20224;-67
2022/11/07 03:20:37;;;;;;;1.20;1.05;;;9.80;99.90;;;;;;5070958;28;20212;-67
2022/11/07 03:23:04;;;;;;;1.00;0.90;;;9.80;99.90;;;;;;5069778;28;20200;-67
2022/11/07 03:25:31;;;;;;;1.20;1.00;;;9.80;99.90;;;;;;5070772;28;20247;-67
2022/11/07 03:27:57;;;;;;;1.88;1.55;;;9.80;99.90;;;;;;5070842;28;20204;-67
2022/11/07 03:30:24;;;;;;;1.85;1.00;;;9.70;99.90;;;;;;5070461;28;20193;-67
2022/11/07 03:32:52;;;;;;;1.60;1.27;;;9.70;99.90;;;;;;5070464;28;20205;-67
2022/11/07 03:35:20;;;;;;;1.70;1.20;;;9.80;99.90;;;;;;5070322;28;20537;-67
2022/11/07 03:37:48;;;;;;;2.47;1.30;;;9.80;99.90;;;;;;5070914;28;20221;-67
2022/11/07 03:40:16;;;;;;;5.47;1.30;;;9.80;99.90;;;;;;5070287;28;20201;-66
2022/11/07 03:42:44;;;;;;;1.20;1.10;;;9.80;99.90;;;;;;5070059;28;20213;-67
2022/11/07 03:45:12;;;;;;;2.38;1.13;;;9.70;99.90;;;;;;5070206;28;20242;-67
2022/11/07 03:47:42;;;;;;;1.48;1.27;;;9.80;99.90;;;;;;5070393;28;20231;-66
2022/11/07 03:50:11;;;;;;;1.10;1.00;;;9.80;99.90;;;;;;5070186;28;20212;-66
2022/11/07 03:52:40;;;;;;;1.80;1.10;;;9.80;99.90;;;;;;5069934;28;20204;-67
2022/11/07 03:55:07;;;;;;;1.10;0.90;;;9.80;99.90;;;;;;5070151;28;20217;-67
2022/11/07 03:57:34;;;;;;;1.00;0.90;;;9.80;99.90;;;;;;5071093;28;20223;-67
2022/11/07 04:00:01;;;;;;;1.20;1.10;;;9.80;99.90;;;;;;5069975;28;20589;-67
2022/11/07 04:02:28;;;;;;;1.90;1.60;;;9.80;99.90;;;;;;5069821;28;20209;-66
2022/11/07 04:04:55;;;;;;;1.75;1.23;;;9.80;99.90;;;;;;5070736;28;20230;-67
2022/11/07 04:07:21;;;;;;;1.30;1.15;;;9.80;99.90;;;;;;5067673;28;20621;-67
2022/11/07 04:09:49;;;;;;;1.10;0.95;;;9.80;99.90;;;;;;5050541;28;20212;-67
2022/11/07 04:17:44;;;;;;;1.15;1.00;;;9.80;99.90;;;;;;5052864;28;20703;-67
2022/11/07 04:20:11;;;;;;;1.30;1.20;;;9.80;99.90;;;;;;5053379;28;20202;-66
2022/11/07 04:22:38;;;;;;;1.80;1.00;;;9.70;99.90;;;;;;5054086;28;20205;-67
2022/11/07 04:25:07;;;;;;;1.52;1.40;;;9.70;99.90;;;;;;5054134;28;20598;-67
2022/11/07 04:27:42;;;;;;;1.20;1.05;;;9.70;99.90;;;;;;5053753;28;20577;-66
2022/11/07 04:30:22;;;;;;;2.25;1.40;;;9.60;99.90;;;;;;5053520;28;20279;-67
2022/11/07 04:32:51;;;;;;;2.03;1.40;;;9.60;99.90;;;;;;5053404;28;20204;-66
2022/11/07 04:35:19;;;;;;;1.73;1.30;;;9.60;99.90;;;;;;5043926;28;20225;-66
2022/11/07 04:37:47;;;;;;;1.73;1.50;;;9.50;99.90;;;;;;5041967;28;20240;-66
2022/11/07 04:40:15;;;;;;;1.45;1.00;;;9.50;99.90;;;;;;5043312;28;20268;-67
2022/11/07 04:42:43;;;;;;;1.23;1.10;;;9.40;99.90;;;;;;5042257;28;20213;-66
2022/11/07 04:45:11;;;;;;;1.63;1.20;;;9.30;99.90;;;;;;5040855;28;20774;-67
2022/11/07 04:47:38;;;;;;;1.00;0.90;;;9.30;99.90;;;;;;5043056;28;20236;-67
2022/11/07 04:50:07;;;;;;;1.45;1.35;;;9.20;99.90;;;;;;5042520;28;20202;-67
2022/11/07 04:52:34;;;;;;;1.48;1.30;;;9.10;99.90;;;;;;5034326;28;20201;-67
2022/11/07 04:55:00;;;;;;;1.52;1.10;;;9.10;99.90;;;;;;5217303;22;20212;-70
2022/11/07 04:57:28;;;;;;;1.20;1.10;;;9.00;99.90;;;;;;5055503;28;20672;-70
2022/11/07 04:59:55;;;;;;;1.55;1.30;;;8.90;99.90;;;;;;5054390;28;20205;-70
2022/11/07 05:02:24;;;;;;;1.25;1.10;;;8.80;99.90;;;;;;5060848;28;20197;-70
2022/11/07 05:04:51;;;;;;;1.50;1.27;;;8.80;99.90;;;;;;5061694;28;20293;-70
2022/11/07 05:07:18;;;;;;;1.30;1.20;;;8.70;99.90;;;;;;5061832;28;20192;-70
2022/11/07 05:09:45;;;;;;;1.95;1.55;;;8.70;99.90;;;;;;5062066;28;20205;-70
2022/11/07 05:12:12;;;;;;;1.70;1.40;;;8.70;99.90;;;;;;5052480;28;20197;-70
2022/11/07 05:14:40;;;;;;;1.10;0.95;;;8.60;99.90;;;;;;5061401;28;20224;-69
2022/11/07 05:17:06;;;;;;;1.40;1.20;;;8.60;99.90;;;;;;5062095;28;21495;-70
2022/11/07 05:19:33;;;;;;;1.27;1.17;;;8.60;99.90;;;;;;5057830;28;20290;-70
2022/11/07 05:24:44;;;;;;;2.55;1.20;;;8.40;99.90;;;;;;5058326;28;20510;-71
2022/11/07 05:27:17;;;;;;;0.98;0.88;;;8.40;99.90;;;;;;5063535;28;20213;-68
2022/11/07 05:29:45;;;;;;;1.30;1.20;;;8.40;99.90;;;;;;5054150;28;20216;-69
2022/11/07 05:32:12;;;;;;;1.17;1.08;;;8.30;99.90;;;;;;5061692;28;20210;-69
2022/11/07 05:34:39;;;;;;;1.27;1.17;;;8.30;99.90;;;;;;5057456;28;20217;-70
2022/11/07 05:37:08;;;;;;;1.75;1.20;;;8.40;99.90;;;;;;5061011;28;20244;-70
2022/11/07 05:39:35;;;;;;;1.10;1.00;;;8.40;99.90;;;;;;5062132;28;20224;-69
2022/11/07 05:42:02;;;;;;;2.00;1.00;;;8.40;99.90;;;;;;5058496;28;20201;-68
2022/11/07 05:44:29;;;;;;;2.75;1.23;;;8.40;99.90;;;;;;5054427;28;20220;-69
2022/11/07 05:46:58;;;;;;;2.25;1.10;;;8.50;99.90;;;;;;5052170;28;20679;-68
2022/11/07 05:49:25;;;;;;;1.55;1.30;;;8.60;99.90;;;;;;5051875;28;20201;-69
2022/11/07 05:51:52;;;;;;;1.70;1.33;;;8.60;99.90;;;;;;5051515;28;20202;-69
2022/11/07 05:54:19;;;;;;;1.80;1.55;;;8.70;99.90;;;;;;5051928;28;20197;-68
2022/11/07 05:56:45;;;;;;;1.98;1.25;;;8.70;99.90;;;;;;5051960;28;20210;-68
2022/11/07 05:59:12;;;;;;;1.60;1.30;;;8.70;99.90;;;;;;5051565;28;20230;-70
2022/11/07 06:01:39;;;;;;;2.35;1.60;;;8.80;99.90;;;;;;5051356;28;20220;-69
2022/11/07 06:04:07;;;;;;;1.75;1.40;;;8.80;99.90;;;;;;5051942;28;20228;-68
2022/11/07 06:06:34;;;;;;;2.58;1.40;;;8.80;99.90;;;;;;5051995;28;20205;-69
2022/11/07 06:09:01;;;;;;;1.90;1.30;;;8.90;99.90;;;;;;5051569;28;20213;-69
2022/11/07 06:11:27;;;;;;;1.88;1.77;;;8.90;99.90;;;;;;5051497;28;20204;-68
2022/11/07 06:13:54;;;;;;;2.13;1.23;;;8.90;99.90;;;;;;5051346;28;20204;-68
2022/11/07 06:16:21;;;;;;;1.77;1.50;;;8.90;99.90;;;;;;5051730;28;20229;-68
2022/11/07 06:18:48;;;;;;;1.40;1.00;;;9.00;99.90;;;;;;5051036;28;20231;-68
2022/11/07 06:21:16;;;;;;;1.70;0.95;;;9.00;99.90;;;;;;5051236;28;20201;-69
2022/11/07 06:23:43;;;;;;;2.25;1.92;;;9.10;99.90;;;;;;5051871;28;20251;-68
2022/11/07 06:26:10;;;;;;;3.05;1.50;;;9.10;99.90;;;;;;5051447;28;20581;-68
2022/11/07 06:28:36;;;;;;;2.28;1.60;;;9.20;99.90;;;;;;5051667;28;20196;-68
2022/11/07 06:31:05;;;;;;;2.95;1.65;;;9.20;99.90;;;;;;5050635;28;20844;-68
2022/11/07 06:33:32;;;;;;;1.92;1.67;;;9.30;99.90;;;;;;5050589;28;20675;-68
2022/11/07 06:36:06;;;;;;;2.38;1.40;;;9.30;99.90;;;;;;5051134;28;20244;-68
2022/11/07 06:38:34;;;;;;;1.48;1.38;;;9.30;99.90;;;;;;5051184;28;20225;-68
2022/11/07 06:41:05;;;;;;;3.25;1.40;;;9.30;99.90;;;;;;5050738;28;20607;-68
2022/11/07 06:43:33;;;;;;;1.20;1.10;;;9.40;99.90;;;;;;5050386;28;20201;-68
2022/11/07 06:46:03;;;;;;;3.17;1.73;;;9.40;99.90;;;;;;5050864;28;20275;-68
2022/11/07 06:48:29;;;;;;;2.47;1.80;;;9.50;99.90;;;;;;5050818;28;20258;-68
2022/11/07 06:50:57;;;;;;;2.35;2.00;;;9.60;99.90;;;;;;5050196;28;20212;-68
2022/11/07 06:53:24;;;;;;;1.70;1.60;;;9.60;99.90;;;;;;5050345;28;20211;-68
2022/11/07 06:55:52;;;;;;;3.80;1.80;;;9.70;99.90;;;;;;5050799;28;20240;-68
2022/11/07 06:58:19;;;;;;;2.83;1.70;;;9.70;99.90;;;;;;5050050;28;20221;-68
2022/11/07 07:00:46;;;;;;;1.70;1.42;;;9.80;99.90;;;;;;5050672;28;20202;-68
2022/11/07 07:03:13;;;;;;;3.35;1.83;;;9.80;99.90;;;;;;5050089;28;20240;-68
2022/11/07 07:05:40;;;;;;;2.83;1.17;;;9.90;99.90;;;;;;5050129;28;20225;-68
2022/11/07 07:08:07;;;;;;;1.42;1.30;;;9.90;99.90;;;;;;5050620;28;20212;-68
2022/11/07 07:10:37;;;;;;;2.08;1.30;;;9.90;99.90;;;;;;5050614;28;20630;-68
2022/11/07 07:13:05;;;;;;;1.63;1.20;;;10.00;99.90;;;;;;5049934;28;20465;-68
2022/11/07 07:15:32;;;;;;;1.80;1.50;;;10.00;99.90;;;;;;5050586;28;20233;-68
2022/11/07 07:18:00;;;;;;;4.15;1.90;;;10.10;99.90;;;;;;5050394;28;20208;-68
2022/11/07 07:20:27;;;;;;;2.95;1.50;;;10.10;99.90;;;;;;5048188;28;20202;-68
2022/11/07 07:22:54;;;;;;;1.60;1.50;;;10.10;99.90;;;;;;5049133;28;20208;-68
2022/11/07 07:25:20;;;;;;;3.15;1.70;;;10.20;99.90;;;;;;5050007;28;20705;-68
2022/11/07 07:27:47;;;;;;;2.17;1.83;;;10.30;99.90;;;;;;5049786;28;20201;-68
2022/11/07 07:30:16;;;;;;;2.55;1.42;;;10.30;99.90;;;;;;5049166;28;20200;-68
2022/11/07 07:32:42;;;;;;;3.60;1.48;;;10.40;99.90;;;;;;5049890;28;20292;-68
2022/11/07 07:35:10;;;;;;;2.10;1.42;;;10.40;99.90;;;;;;5049553;28;20244;-68
2022/11/07 07:37:36;;;;;;;1.90;1.40;;;10.50;99.90;;;;;;5048516;28;20259;-68
2022/11/07 07:40:03;;;;;;;2.95;1.58;;;10.70;99.90;;;;;;5049678;28;20222;-68
2022/11/07 07:42:30;;;;;;;2.05;1.20;;;10.80;99.90;;;;;;5048764;28;20214;-68
2022/11/07 07:44:57;;;;;;;1.42;1.27;;;10.90;99.90;;;;;;5049912;28;20236;-68
2022/11/07 07:47:25;;;;;;;3.72;1.80;;;10.90;99.90;;;;;;5049741;28;20209;-68
2022/11/07 07:49:53;;;;;;;4.68;1.60;;;11.00;99.90;;;;;;5049596;28;20235;-68
2022/11/07 07:52:24;;;;;;;3.38;1.45;;;11.00;99.90;;;;;;5051135;28;20668;-68
2022/11/07 07:54:51;;;;;;;1.80;1.17;;;11.10;99.90;;;;;;5053880;28;20222;-68
2022/11/07 07:57:18;;;;;;;1.27;1.15;;;11.20;99.90;;;;;;5053760;28;20198;-68
2022/11/07 07:59:44;;;;;;;1.45;1.20;;;11.20;99.90;;;;;;5054134;28;20217;-68
2022/11/07 08:02:12;;;;;;;3.30;1.33;;;11.30;99.90;;;;;;5053348;28;20201;-68
2022/11/07 08:04:50;;;;;;;1.95;1.50;;;11.30;99.90;;;;;;5053886;28;20218;-68
2022/11/07 08:07:17;;;;;;;1.83;1.15;;;11.40;99.90;;;;;;5051554;28;20228;-69
2022/11/07 08:09:44;;;;;;;1.30;1.00;;;11.40;99.90;;;;;;5053678;28;20692;-69
2022/11/07 08:12:11;;;;;;;1.95;1.20;;;11.40;99.90;;;;;;5052442;28;20210;-68
2022/11/07 08:14:37;;;;;;;2.78;1.55;;;11.40;99.90;;;;;;5053132;28;20229;-68
2022/11/07 08:17:04;;;;;;;1.55;1.08;;;11.20;99.90;;;;;;5053315;28;20202;-69
2022/11/07 08:19:31;;;;;;;6.05;2.13;;;11.20;99.90;;;;;;5052747;28;20232;-68
2022/11/07 08:21:59;;;;;;;4.80;1.55;;;11.20;99.90;;;;;;5053133;28;20208;-69
2022/11/07 08:24:25;;;;;;;3.88;1.33;;;11.20;99.90;;;;;;5052863;28;20201;-68
2022/11/07 08:26:52;;;;;;;2.72;1.17;;;11.20;99.90;;;;;;5053194;28;20213;-68
2022/11/07 08:29:19;;;;;;;1.60;1.30;;;11.20;99.90;;;;;;5052278;28;21041;-68
2022/11/07 08:31:49;;;;;;;3.83;1.88;;;11.20;99.90;;;;;;5052757;28;20208;-68
2022/11/07 08:34:16;;;;;;;2.22;1.55;;;11.20;99.90;;;;;;5052893;28;20301;-68
2022/11/07 08:36:43;;;;;;;1.13;1.02;;;11.30;99.90;;;;;;5053470;28;20201;-68
2022/11/07 08:39:11;;;;;;;1.50;1.10;;;11.30;99.90;;;;;;5052818;28;20214;-68
2022/11/07 08:41:38;;;;;;;2.17;1.23;;;11.30;99.90;;;;;;5051692;28;20210;-69
2022/11/07 08:44:07;;;;;;;6.90;1.85;;;11.30;99.90;;;;;;5053156;28;20208;-68
2022/11/07 08:46:33;;;;;;;7.03;1.80;;;11.30;99.90;;;;;;5052574;28;20222;-68
2022/11/07 08:49:00;;;;;;;4.07;1.20;;;11.30;99.90;;;;;;5052749;28;20224;-68
2022/11/07 08:51:27;;;;;;;4.63;1.70;;;11.20;99.90;;;;;;5051997;28;20198;-69
2022/11/07 08:53:53;;;;;;;1.50;1.40;;;11.30;99.90;;;;;;5052441;28;20217;-68
2022/11/07 08:56:22;;;;;;;2.30;1.58;;;11.20;99.90;;;;;;5052313;28;20234;-68
2022/11/07 08:58:48;;;;;;;2.45;1.60;;;11.10;99.90;;;;;;5053008;28;20221;-68
2022/11/07 09:01:15;;;;;;;2.58;1.77;;;11.20;99.90;;;;;;5051992;28;20217;-68
2022/11/07 09:03:42;;;;;;;1.30;1.20;;;11.40;99.90;;;;;;5055426;28;20296;-68
2022/11/07 09:06:09;;;;;;;3.20;1.60;;;11.60;99.90;;;;;;5055536;28;20229;-68
2022/11/07 09:08:35;;;;;;;4.88;1.52;;;11.60;99.90;;;;;;5064331;28;20220;-68
2022/11/07 09:11:03;;;;;;;1.60;1.40;;;11.70;99.90;;;;;;5072334;28;20220;-68
2022/11/07 09:13:32;;;;;;;2.38;1.58;;;11.80;99.90;;;;;;5072258;28;20252;-68
2022/11/07 09:15:59;;;;;;;2.10;1.30;;;12.00;99.90;;;;;;5072772;28;20224;-68
2022/11/07 09:18:26;;;;;;;1.75;1.27;;;12.00;99.90;;;;;;5071971;28;20201;-68
2022/11/07 09:21:27;;;;;;;2.88;1.65;;;12.00;99.90;;;;;;6053510;22;20214;-68
2022/11/07 09:23:53;;;;;;;3.05;1.65;;;12.00;99.90;;;;;;5055837;28;20212;-69
2022/11/07 09:26:20;;;;;;;1.35;1.25;;;12.20;99.90;;;;;;5051451;28;20226;-69
2022/11/07 09:28:48;;;;;;;2.70;1.95;;;12.30;99.90;;;;;;5051881;28;20202;-70
2022/11/07 09:31:15;;;;;;;2.00;1.45;;;12.40;99.90;;;;;;5037901;28;20198;-69
2022/11/07 09:34:10;;;;;;;2.10;1.43;;;12.70;99.90;;;;;;5086107;22;20224;-93
2022/11/07 09:43:59;;;;;;;4.20;1.60;;;13.00;99.90;;;;;;5063845;22;20562;-67
2022/11/07 09:46:38;;;;;;;2.15;1.48;;;12.70;99.90;;;;;;5044608;28;21045;-67
2022/11/07 09:51:43;;;;;;;2.72;1.15;;;12.30;99.90;;;;;;5079242;22;20285;-67
2022/11/07 09:54:15;;;;;;;2.90;1.53;;;12.20;99.90;;;;;;5071670;28;20574;-67
2022/11/07 09:56:43;;;;;;;1.75;1.20;;;12.20;99.90;;;;;;5071979;28;20862;-66
2022/11/07 09:59:19;;;;;;;1.52;1.20;;;12.30;99.90;;;;;;5072079;28;20552;-67
2022/11/07 10:01:46;;;;;;;3.45;1.17;;;12.20;99.90;;;;;;5071472;28;20250;-67
2022/11/07 10:04:16;;;;;;;3.60;1.75;;;12.10;99.90;;;;;;5071782;28;20205;-67
2022/11/07 10:06:48;;;;;;;2.85;1.60;;;12.00;99.90;;;;;;5071931;28;20208;-67
2022/11/07 10:09:20;;;;;;;2.50;1.47;;;12.00;99.90;;;;;;5071530;28;20587;-67
2022/11/07 10:11:53;;;;;;;1.90;1.27;;;12.00;99.90;;;;;;5071183;28;20495;-66
2022/11/07 10:14:34;;;;;;;4.43;1.60;;;12.10;99.90;;;;;;5071118;28;20550;-67
2022/11/07 10:17:10;;;;;;;2.10;1.50;;;12.10;99.90;;;;;;5071617;28;20207;-66
2022/11/07 10:20:03;;;;;;;2.05;1.20;;;12.10;99.90;;;;;;5071581;28;20197;-67
2022/11/07 10:22:41;;;;;;;4.07;1.17;;;12.00;99.90;;;;;;5071423;28;20224;-67
2022/11/07 10:25:19;;;;;;;1.70;1.10;;;12.10;99.90;;;;;;5071627;28;20225;-67
2022/11/07 10:27:51;;;;;;;2.80;1.30;;;12.10;99.90;;;;;;5071315;28;20696;-67
2022/11/07 10:30:21;;;;;;;2.00;1.50;;;12.10;99.90;;;;;;5070827;28;20221;-66
2022/11/07 10:32:57;;;;;;;1.53;1.40;;;12.20;99.90;;;;;;5071226;28;20255;-66
2022/11/07 10:35:31;;;;;;;1.27;1.17;;;12.30;99.90;;;;;;5071353;28;20475;-68
2022/11/07 10:38:00;;;;;;;1.40;1.25;;;12.40;99.90;;;;;;5071580;28;20230;-66
2022/11/07 10:40:33;;;;;;;1.27;1.10;;;12.40;99.90;;;;;;5070883;28;20200;-67
2022/11/07 10:43:03;;;;;;;2.33;1.20;;;12.50;99.90;;;;;;5070538;28;20227;-67
2022/11/07 10:45:32;;;;;;;3.53;1.73;;;12.60;99.90;;;;;;5071444;28;20232;-66
2022/11/07 10:48:02;;;;;;;2.33;1.77;;;12.60;99.90;;;;;;5071343;28;20916;-66
2022/11/07 10:50:30;;;;;;;1.47;1.37;;;12.60;99.90;;;;;;5070332;28;20593;-66
2022/11/07 10:52:58;;;;;;;4.00;1.50;;;12.60;99.90;;;;;;5071082;28;20505;-66
2022/11/07 10:55:27;;;;;;;2.00;1.57;;;12.70;99.90;;;;;;5070919;28;20475;-66
2022/11/07 10:57:58;;;;;;;2.60;1.23;;;12.80;99.90;;;;;;5070700;28;20452;-66
2022/11/07 11:00:27;;;;;;;2.63;1.50;;;12.90;99.90;;;;;;5070632;28;20455;-66
2022/11/07 11:02:57;;;;;;;2.38;1.55;;;12.90;99.90;;;;;;5070623;28;20455;-66
2022/11/07 11:05:27;;;;;;;1.87;1.30;;;13.00;99.90;;;;;;5070901;28;20221;-66
2022/11/07 11:07:56;;;;;;;2.20;1.10;;;12.90;99.90;;;;;;5070861;28;20455;-67
2022/11/07 11:10:24;;;;;;;2.50;1.50;;;13.00;99.90;;;;;;5070338;28;20537;-66
2022/11/07 11:12:51;;;;;;;1.43;1.00;;;13.10;99.90;;;;;;5070739;28;20296;-67
2022/11/07 11:15:20;;;;;;;1.35;1.05;;;13.20;99.90;;;;;;5070437;28;20479;-66
2022/11/07 11:17:58;;;;;;;1.87;1.50;;;13.20;99.90;;;;;;5070914;28;20205;-67
2022/11/07 11:20:33;;;;;;;1.80;1.30;;;13.40;99.90;;;;;;5069930;28;20461;-67
2022/11/07 11:23:01;;;;;;;1.30;1.03;;;13.60;99.90;;;;;;5070352;28;20459;-65
2022/11/07 11:25:27;;;;;;;1.90;1.20;;;13.90;99.90;;;;;;5070657;28;20479;-66
2022/11/07 11:28:01;;;;;;;3.10;1.50;;;14.30;99.90;;;;;;5070909;28;20818;-66
2022/11/07 11:30:30;;;;;;;1.33;1.00;;;14.70;99.90;;;;;;5067756;28;20479;-67
2022/11/07 11:33:05;;;;;;;2.83;1.30;;;14.80;99.90;;;;;;5070187;28;20466;-66
2022/11/07 11:35:36;;;;;;;1.53;1.10;;;14.80;99.90;;;;;;5067782;28;20479;-66
2022/11/07 11:38:08;;;;;;;0.90;0.80;;;14.90;99.90;;;;;;5070330;28;20550;-66
2022/11/07 11:40:39;;;;;;;1.70;0.90;;;15.00;99.90;;;;;;5069602;28;20506;-66
2022/11/07 11:43:18;;;;;;;5.80;1.60;;;15.10;99.90;;;;;;5069648;28;20988;-66
2022/11/07 11:45:58;;;;;;;1.57;1.00;;;15.00;99.90;;;;;;5038683;28;20471;-66
2022/11/07 11:48:31;;;;;;;3.40;1.43;;;14.90;99.90;;;;;;5040183;28;20503;-67
2022/11/07 11:51:02;;;;;;;1.67;0.90;;;14.80;99.90;;;;;;5032419;28;20487;-66
2022/11/07 11:53:29;;;;;;;1.97;1.10;;;14.70;99.90;;;;;;5030001;28;20495;-65
2022/11/07 11:56:16;;;;;;;1.47;1.20;;;14.80;99.90;;;;;;5029633;28;20481;-66
2022/11/07 11:58:48;;;;;;;2.53;1.13;;;14.90;99.90;;;;;;5034216;28;20904;-66
2022/11/07 12:01:25;;;;;;;2.70;1.50;;;14.90;99.90;;;;;;5069635;28;20459;-66
2022/11/07 12:04:07;;;;;;;1.87;1.10;;;14.90;99.90;;;;;;5069991;28;20466;-66
2022/11/07 12:06:38;;;;;;;1.97;1.00;;;14.90;99.90;;;;;;5070400;28;20466;-65
2022/11/07 12:09:24;;;;;;;1.40;1.10;;;14.80;99.90;;;;;;5069791;28;20458;-66
2022/11/07 12:12:11;;;;;;;2.47;1.07;;;14.90;99.90;;;;;;5069650;28;21197;-66
2022/11/07 12:14:50;;;;;;;3.00;1.53;;;15.00;99.90;;;;;;5070314;28;20486;-65
2022/11/07 12:17:22;;;;;;;2.63;1.50;;;15.20;99.90;;;;;;5069561;28;20451;-65
2022/11/07 12:19:58;;;;;;;3.43;1.83;;;15.50;99.90;;;;;;5069862;28;20447;-66
2022/11/07 12:22:39;;;;;;;1.30;0.90;;;15.80;99.90;;;;;;5069251;28;20454;-65
2022/11/07 12:25:12;;;;;;;2.80;2.13;;;16.10;99.90;;;;;;5069869;28;20475;-66
2022/11/07 12:27:46;;;;;;;1.50;1.00;;;16.10;99.90;;;;;;5070181;28;20458;-66
2022/11/07 12:30:21;;;;;;;1.20;0.97;;;16.00;99.90;;;;;;5066236;28;20475;-66
2022/11/07 12:33:02;;;;;;;1.20;1.10;;;15.70;99.90;;;;;;5069508;28;20953;-66
2022/11/07 12:35:41;;;;;;;1.93;1.20;;;15.50;99.90;;;;;;5069748;28;20475;-66
2022/11/07 12:38:31;;;;;;;2.47;1.10;;;15.30;99.90;;;;;;5071404;28;20455;-66
2022/11/07 12:41:06;;;;;;;1.67;1.07;;;15.30;99.90;;;;;;5072685;28;20455;-65
2022/11/07 12:43:47;;;;;;;1.60;1.20;;;15.40;99.90;;;;;;5073506;28;20457;-66
2022/11/07 12:46:21;;;;;;;1.20;1.07;;;15.60;99.90;;;;;;5069599;28;20474;-65
2022/11/07 12:49:22;;;;;;;2.60;1.00;;;15.70;99.90;;;;;;5073305;28;20817;-65
2022/11/07 12:52:00;;;;;;;1.87;0.90;;;15.80;99.90;;;;;;5072687;28;20858;-65
2022/11/07 12:54:43;;;;;;;4.03;1.63;;;15.80;99.90;;;;;;5072762;28;21001;-66
2022/11/07 12:57:17;;;;;;;1.50;1.20;;;15.80;99.90;;;;;;5072380;28;20462;-65
2022/11/07 12:59:51;;;;;;;1.43;1.10;;;15.70;99.90;;;;;;5071119;28;20463;-66
2022/11/07 13:02:29;;;;;;;2.47;1.20;;;15.70;99.90;;;;;;5072721;28;20467;-65
2022/11/07 13:05:03;;;;;;;3.00;1.20;;;15.60;99.90;;;;;;5072836;28;20506;-65
2022/11/07 13:07:40;;;;;;;1.53;1.20;;;15.40;99.90;;;;;;5073099;28;20462;-65
2022/11/07 13:10:14;;;;;;;2.03;1.40;;;15.30;99.90;;;;;;5072462;28;21029;-66
2022/11/07 13:12:50;;;;;;;3.53;1.20;;;15.20;99.90;;;;;;5072605;28;20484;-65
2022/11/07 13:15:18;;;;;;;1.30;1.20;;;15.00;99.90;;;;;;5072403;28;20493;-68
2022/11/07 13:17:46;;;;;;;3.00;1.20;;;15.00;99.90;;;;;;5072831;28;20839;-67
2022/11/07 13:20:34;;;;;;;2.57;1.23;;;14.90;99.90;;;;;;5072120;28;20451;-66
2022/11/07 13:23:14;;;;;;;3.07;1.10;;;14.90;99.90;;;;;;5066157;28;20455;-67
2022/11/07 13:25:42;;;;;;;4.70;1.50;;;15.10;99.90;;;;;;5072896;28;20478;-66